createdAt,value
2022-10-15T00:03:12.991Z,7.40
2022-10-15T00:08:24.094Z,8.05
2022-10-15T00:13:25.931Z,7.72
2022-10-15T00:18:27.328Z,2.47
2022-10-15T00:23:28.797Z,4.07
2022-10-15T00:28:33.417Z,1.73
2022-10-15T00:33:36.347Z,1.70
2022-10-15T00:38:37.736Z,5.70
2022-10-15T00:43:40.261Z,0.73
2022-10-15T00:48:41.598Z,4.05
2022-10-15T00:53:43.221Z,2.40
2022-10-15T00:58:44.584Z,5.40
2022-10-15T01:03:45.925Z,1.25
2022-10-15T01:08:47.212Z,0.67
2022-10-15T01:13:48.416Z,1.13
2022-10-15T01:18:54.130Z,0.98
2022-10-15T01:24:14.438Z,2.63
2022-10-15T01:29:47.026Z,1.73
2022-10-15T01:34:57.275Z,1.00
2022-10-15T01:40:02.069Z,2.70
2022-10-15T01:45:07.137Z,2.17
2022-10-15T01:50:09.561Z,2.00
2022-10-15T01:55:12.687Z,0.50
2022-10-15T02:00:14.024Z,1.87
2022-10-15T02:05:17.508Z,0.57
2022-10-15T02:10:18.719Z,1.13
2022-10-15T02:15:22.865Z,4.97
2022-10-15T02:20:28.752Z,1.05
2022-10-15T02:25:30.353Z,1.27
2022-10-15T02:30:32.411Z,1.90
2022-10-15T02:35:34.361Z,0.32
2022-10-15T02:40:36.475Z,3.35
2022-10-15T02:45:38.164Z,1.03
2022-10-15T02:50:39.561Z,1.20
2022-10-15T02:55:40.788Z,2.15
2022-10-15T03:00:42.065Z,3.03
2022-10-15T03:05:43.366Z,1.70
2022-10-15T03:10:46.309Z,1.48
2022-10-15T03:15:47.580Z,1.88
2022-10-15T03:20:55.471Z,1.90
2022-10-15T03:25:56.824Z,1.75
2022-10-15T03:30:58.117Z,1.88
2022-10-15T03:35:59.389Z,1.70
2022-10-15T03:41:00.649Z,4.20
2022-10-15T03:46:02.649Z,1.85
2022-10-15T03:51:03.972Z,2.17
2022-10-15T03:56:05.553Z,4.10
2022-10-15T04:01:14.010Z,4.80
2022-10-15T04:06:15.266Z,4.28
2022-10-15T04:11:16.490Z,4.57
2022-10-15T04:16:17.785Z,2.58
2022-10-15T04:21:19.037Z,3.72
2022-10-15T04:26:20.306Z,3.17
2022-10-15T04:31:21.890Z,2.08
2022-10-15T04:36:23.117Z,2.55
2022-10-15T04:41:24.375Z,1.73
2022-10-15T04:46:25.623Z,5.97
2022-10-15T04:51:27.116Z,2.90
2022-10-15T04:56:28.410Z,3.60
2022-10-15T05:01:29.622Z,3.70
2022-10-15T05:06:32.346Z,3.03
2022-10-15T05:11:35.363Z,4.20
2022-10-15T05:16:36.583Z,3.00
2022-10-15T05:21:39.007Z,3.17
2022-10-15T05:26:40.308Z,5.22
2022-10-15T05:31:41.613Z,2.23
2022-10-15T05:36:42.873Z,3.65
2022-10-15T05:41:44.164Z,7.53
2022-10-15T05:46:45.370Z,3.53
2022-10-15T05:51:46.724Z,2.97
2022-10-15T05:56:48.009Z,3.00
2022-10-15T06:01:49.389Z,3.73
2022-10-15T06:06:50.653Z,3.37
2022-10-15T06:11:51.875Z,3.85
2022-10-15T06:16:54.659Z,4.32
2022-10-15T06:21:55.883Z,3.97
2022-10-15T06:26:58.471Z,3.97
2022-10-15T06:31:59.710Z,5.65
2022-10-15T06:37:00.962Z,3.43
2022-10-15T06:42:02.187Z,4.30
2022-10-15T06:47:03.429Z,4.15
2022-10-15T06:52:04.740Z,3.57
2022-10-15T06:57:05.980Z,3.70
2022-10-15T07:02:08.455Z,4.22
2022-10-15T07:07:09.758Z,6.17
2022-10-15T07:12:10.976Z,3.77
2022-10-15T07:17:12.226Z,5.00
2022-10-15T07:22:13.451Z,3.45
2022-10-15T07:27:19.159Z,4.40
2022-10-15T07:32:20.868Z,3.13
2022-10-15T07:37:22.323Z,5.40
2022-10-15T07:42:23.615Z,4.23
2022-10-15T07:47:25.076Z,2.78
2022-10-15T07:52:26.918Z,4.60
2022-10-15T07:57:28.455Z,3.83
2022-10-15T08:02:29.689Z,2.27
2022-10-15T08:07:30.946Z,3.25
2022-10-15T08:12:32.226Z,2.90
2022-10-15T08:17:33.461Z,3.17
2022-10-15T08:22:34.949Z,2.60
2022-10-15T08:27:36.383Z,4.60
2022-10-15T08:32:37.602Z,3.57
2022-10-15T08:37:38.874Z,3.35
2022-10-15T08:42:41.844Z,3.88
2022-10-15T08:47:48.446Z,3.43
2022-10-15T08:52:50.433Z,3.80
2022-10-15T08:57:59.737Z,2.45
2022-10-15T09:03:19.754Z,3.67
2022-10-15T09:08:39.982Z,3.57
2022-10-15T09:13:43.115Z,2.60
2022-10-15T09:18:49.149Z,3.97
2022-10-15T09:23:51.022Z,1.57
2022-10-15T09:28:56.724Z,3.40
2022-10-15T09:34:10.693Z,1.98
2022-10-15T09:39:23.963Z,2.60
2022-10-15T09:44:27.332Z,2.33
2022-10-15T09:49:33.867Z,2.53
2022-10-15T09:54:48.289Z,5.38
2022-10-15T09:59:53.825Z,3.80
2022-10-15T10:04:55.885Z,2.40
2022-10-15T10:09:58.381Z,1.98
2022-10-15T10:15:02.849Z,3.17
2022-10-15T10:20:10.085Z,2.42
2022-10-15T10:25:26.655Z,6.25
2022-10-15T10:30:27.936Z,3.17
2022-10-15T10:35:34.000Z,3.33
2022-10-15T10:40:35.773Z,4.15
2022-10-15T10:45:37.194Z,4.30
2022-10-15T10:50:40.933Z,5.80
2022-10-15T10:55:42.457Z,4.50
2022-10-15T11:00:45.061Z,4.82
2022-10-15T11:05:47.632Z,4.30
2022-10-15T11:11:12.315Z,5.13
2022-10-15T11:16:21.045Z,5.65
2022-10-15T11:21:28.191Z,3.17
2022-10-15T11:26:37.571Z,2.80
2022-10-15T11:32:02.448Z,3.53
2022-10-15T11:37:23.762Z,6.68
2022-10-15T11:42:48.337Z,6.57
2022-10-15T11:48:05.017Z,5.18
2022-10-15T11:53:24.695Z,8.68
2022-10-15T11:58:32.823Z,5.30
2022-10-15T12:03:37.317Z,7.38
2022-10-15T12:08:39.785Z,4.47
2022-10-15T12:13:44.053Z,5.97
2022-10-15T12:18:52.888Z,4.87
2022-10-15T12:23:54.175Z,4.30
2022-10-15T12:28:59.463Z,6.00
2022-10-15T12:34:03.476Z,4.20
2022-10-15T12:39:16.076Z,5.07
2022-10-15T12:44:30.146Z,5.82
2022-10-15T12:49:32.157Z,3.60
2022-10-15T12:54:36.143Z,3.25
2022-10-15T12:59:43.539Z,10.98
2022-10-15T13:04:44.985Z,2.70
2022-10-15T13:09:46.245Z,4.10
2022-10-15T13:14:54.943Z,4.57
2022-10-15T13:19:56.149Z,6.28
2022-10-15T13:24:57.777Z,6.90
2022-10-15T13:29:59.048Z,7.72
2022-10-15T13:35:02.212Z,3.00
2022-10-15T13:40:07.732Z,2.83
2022-10-15T13:45:13.034Z,3.92
2022-10-15T13:50:20.291Z,3.83
2022-10-15T13:55:26.516Z,4.10
2022-10-15T14:00:29.298Z,4.53
2022-10-15T14:05:30.564Z,8.93
2022-10-15T14:10:31.831Z,5.68
2022-10-15T14:21:18.144Z,5.05
2022-10-15T14:26:23.848Z,4.97
2022-10-15T14:31:47.174Z,5.80
2022-10-15T14:36:48.583Z,4.93
2022-10-15T14:42:00.120Z,4.15
2022-10-15T14:47:02.607Z,5.80
2022-10-15T14:52:03.900Z,5.33
2022-10-15T14:57:11.975Z,5.90
2022-10-15T15:02:15.318Z,5.50
2022-10-15T15:07:18.649Z,5.70
2022-10-15T15:12:24.230Z,5.53
2022-10-15T15:17:29.558Z,5.75
2022-10-15T15:22:31.691Z,6.40
2022-10-15T15:27:37.082Z,6.15
2022-10-15T15:32:38.452Z,6.93
2022-10-15T15:37:39.787Z,7.23
2022-10-15T15:42:41.605Z,5.07
2022-10-15T15:47:42.851Z,4.07
2022-10-15T15:52:44.127Z,6.53
2022-10-15T15:57:46.138Z,4.93
2022-10-15T16:02:47.377Z,4.55
2022-10-15T16:07:48.604Z,4.93
2022-10-15T16:12:49.929Z,6.10
2022-10-15T16:17:51.164Z,6.05
2022-10-15T16:22:53.160Z,5.45
2022-10-15T16:27:56.623Z,5.27
2022-10-15T16:32:57.933Z,3.90
2022-10-15T16:37:59.241Z,5.95
2022-10-15T16:43:00.595Z,4.95
2022-10-15T16:48:02.132Z,4.50
2022-10-15T16:53:03.775Z,5.32
2022-10-15T16:58:05.024Z,9.18
2022-10-15T17:03:07.537Z,6.30
2022-10-15T17:08:12.947Z,6.22
2022-10-15T17:13:16.444Z,10.50
2022-10-15T17:18:17.696Z,8.23
2022-10-15T17:23:18.961Z,7.53
2022-10-15T17:33:26.358Z,11.68
2022-10-15T17:38:27.679Z,6.97
2022-10-15T17:43:28.985Z,6.88
2022-10-15T17:48:30.720Z,6.82
2022-10-15T17:53:32.524Z,5.10
2022-10-15T17:58:33.890Z,5.43
2022-10-15T18:03:35.932Z,8.35
2022-10-15T18:08:37.169Z,5.20
2022-10-15T18:13:38.407Z,9.67
2022-10-15T18:18:39.630Z,13.73
2022-10-15T18:23:40.979Z,9.20
2022-10-15T18:28:42.650Z,7.53
2022-10-15T18:33:45.144Z,10.30
2022-10-15T18:38:46.869Z,11.33
2022-10-15T18:43:52.384Z,11.88
2022-10-15T18:48:54.025Z,10.48
2022-10-15T18:53:55.382Z,11.87
2022-10-15T18:58:56.686Z,15.20
2022-10-15T19:03:59.097Z,12.18
2022-10-15T19:09:01.090Z,9.95
2022-10-15T19:14:02.710Z,10.47
2022-10-15T19:19:05.526Z,6.82
2022-10-15T19:24:06.882Z,6.72
2022-10-15T19:29:08.157Z,6.73
2022-10-15T19:34:09.731Z,6.47
2022-10-15T19:39:12.589Z,9.45
2022-10-15T19:44:16.741Z,6.13
2022-10-15T19:49:18.115Z,6.87
2022-10-15T19:54:19.454Z,8.50
2022-10-15T19:59:20.802Z,7.63
2022-10-15T20:04:22.051Z,9.17
2022-10-15T20:09:23.396Z,6.63
2022-10-15T20:14:24.768Z,8.30
2022-10-15T20:19:26.045Z,6.63
2022-10-15T20:24:27.295Z,16.65
2022-10-15T20:29:28.563Z,11.82
2022-10-15T20:34:33.412Z,12.57
2022-10-15T20:39:34.724Z,11.53
2022-10-15T20:44:35.957Z,9.15
2022-10-15T20:49:40.072Z,9.52
2022-10-15T20:54:41.371Z,5.93
2022-10-15T20:59:42.619Z,7.90
2022-10-15T21:04:46.658Z,8.75
2022-10-15T21:09:47.890Z,10.57
2022-10-15T21:14:49.120Z,8.30
2022-10-15T21:19:52.749Z,10.38
2022-10-15T21:24:54.298Z,6.50
2022-10-15T21:29:55.546Z,8.70
2022-10-15T21:34:57.310Z,10.32
2022-10-15T21:39:58.560Z,7.05
2022-10-15T21:44:59.858Z,6.83
2022-10-15T21:50:01.102Z,6.95
2022-10-15T21:55:02.344Z,6.22
2022-10-15T22:00:06.563Z,6.73
2022-10-15T22:05:07.915Z,8.20
2022-10-15T22:10:09.211Z,5.40
2022-10-15T22:15:10.527Z,7.17
2022-10-15T22:20:11.763Z,6.07
2022-10-15T22:25:12.992Z,6.45
2022-10-15T22:30:14.307Z,4.80
2022-10-15T22:35:15.626Z,7.97
2022-10-15T22:40:16.992Z,7.10
2022-10-15T22:45:18.285Z,5.95
2022-10-15T22:50:19.609Z,7.93
2022-10-15T22:55:20.838Z,9.65
2022-10-15T23:00:22.092Z,8.75
2022-10-15T23:05:23.317Z,6.00
2022-10-15T23:10:24.532Z,5.72
2022-10-15T23:15:25.740Z,6.90
2022-10-15T23:20:26.994Z,13.50
2022-10-15T23:25:28.252Z,8.00
2022-10-15T23:30:29.489Z,9.18
2022-10-15T23:35:30.732Z,6.47
2022-10-15T23:40:32.014Z,4.20
2022-10-15T23:45:35.691Z,5.07
2022-10-15T23:50:39.281Z,6.63
2022-10-15T23:55:40.796Z,8.37
